Time;durP1;ratioP1;P1;durP2;ratioP2;P2;SDS_P1;SDS_P2;PMS_P1;PMS_P2;Temp;Humidity;BMP_temperature;BMP_pressure;BME280_temperature;BME280_humidity;BME280_pressure;Samples;Min_cycle;Max_cycle;Signal;HPM_P1;HPM_P2
2022/01/10 00:00:42;;;;;;;22.83;13.13;;;;;;;-1.81;100.00;100055.69;5108077;28;20052;-63
2022/01/10 00:03:08;;;;;;;28.05;13.43;;;;;;;-1.96;100.00;100040.34;5091699;28;20036;-64
2022/01/10 00:05:34;;;;;;;25.30;12.70;;;;;;;-1.91;100.00;100062.59;5108513;28;20414;-63
2022/01/10 00:08:02;;;;;;;25.98;13.18;;;;;;;-1.87;100.00;100060.88;5091560;28;20031;-64
2022/01/10 00:10:28;;;;;;;27.17;14.70;;;;;;;-1.89;100.00;100047.16;5092041;28;20024;-63
2022/01/10 00:12:53;;;;;;;23.20;14.52;;;;;;;-1.78;100.00;100065.97;5092408;28;20360;-63
2022/01/10 00:15:19;;;;;;;26.17;14.13;;;;;;;-1.77;100.00;100067.69;5091434;28;20028;-64
2022/01/10 00:17:45;;;;;;;31.33;14.38;;;;;;;-1.78;100.00;100076.25;5091646;28;20031;-64
2022/01/10 00:20:13;;;;;;;19.20;12.23;;;;;;;-1.79;100.00;100085.69;5091406;28;20039;-64
2022/01/10 00:22:40;;;;;;;22.95;12.75;;;;;;;-1.79;100.00;100090.00;5091155;28;20093;-64
2022/01/10 00:25:06;;;;;;;21.33;12.43;;;;;;;-1.88;100.00;100080.59;5091612;28;20028;-63
2022/01/10 00:27:31;;;;;;;25.30;12.82;;;;;;;-1.84;100.00;100087.44;5091300;28;20506;-64
2022/01/10 00:29:57;;;;;;;30.20;12.63;;;;;;;-1.91;100.00;100098.66;5090500;28;20123;-63
2022/01/10 00:32:25;;;;;;;20.13;11.73;;;;;;;-2.20;100.00;100067.03;5091572;28;20421;-64
2022/01/10 00:34:51;;;;;;;21.83;12.70;;;;;;;-2.06;100.00;100099.56;5091180;28;20032;-63
2022/01/10 00:37:16;;;;;;;23.63;11.80;;;;;;;-2.12;100.00;100102.16;5090424;28;20028;-63
2022/01/10 00:39:42;;;;;;;19.73;12.07;;;;;;;-2.06;100.00;100091.84;5089443;28;20039;-63
2022/01/10 00:42:07;;;;;;;19.90;12.48;;;;;;;-2.03;100.00;100096.13;5090615;28;20043;-63
2022/01/10 00:44:38;;;;;;;21.20;10.88;;;;;;;-2.02;100.00;100096.97;5091741;28;20035;-63
2022/01/10 00:47:04;;;;;;;23.60;11.30;;;;;;;-2.06;100.00;100101.28;5090410;28;20061;-63
2022/01/10 00:49:29;;;;;;;24.92;12.90;;;;;;;-2.04;100.00;100102.13;5091818;28;20024;-63
2022/01/10 00:51:55;;;;;;;23.25;13.00;;;;;;;-2.03;100.00;100111.59;5090832;28;20367;-63
2022/01/10 00:54:20;;;;;;;22.48;11.85;;;;;;;-2.04;100.00;100116.72;5090980;28;20109;-64
2022/01/10 00:56:45;;;;;;;27.95;13.68;;;;;;;-2.08;100.00;100116.72;5090747;28;20028;-64
2022/01/10 00:59:11;;;;;;;18.13;12.57;;;;;;;-1.99;100.00;100125.28;5091043;28;20036;-64
2022/01/10 01:01:36;;;;;;;23.58;13.68;;;;;;;-1.94;100.00;100110.66;5091351;28;20035;-64
2022/01/10 01:04:02;;;;;;;38.42;13.82;;;;;;;-1.95;100.00;100114.09;5072939;28;20036;-64
2022/01/10 01:06:28;;;;;;;27.58;13.43;;;;;;;-1.92;100.00;100124.38;5091088;28;20032;-64
2022/01/10 01:08:59;;;;;;;30.00;13.98;;;;;;;-1.89;100.00;100124.41;5091906;28;20024;-64
2022/01/10 01:12:01;;;;;;;28.52;14.93;;;;;;;-1.77;100.00;100129.47;5090475;28;20032;-64
2022/01/10 01:14:26;;;;;;;28.50;14.60;;;;;;;-1.89;100.00;100094.31;5091335;28;20035;-65
2022/01/10 01:17:25;;;;;;;32.55;15.05;;;;;;;-1.78;100.00;100117.44;5091070;28;20040;-64
2022/01/10 01:25:04;;;;;;;22.73;13.77;;;;;;;-2.20;100.00;100093.59;5091214;28;20386;-64
2022/01/10 01:27:29;;;;;;;32.58;16.85;;;;;;;-1.81;100.00;100156.09;5089841;28;20028;-64
2022/01/10 01:29:54;;;;;;;27.33;15.52;;;;;;;-1.71;100.00;100165.47;5091231;28;20032;-64
2022/01/10 01:32:20;;;;;;;36.47;16.40;;;;;;;-1.69;100.00;100169.75;5091623;28;20544;-64
2022/01/10 01:34:46;;;;;;;27.70;15.13;;;;;;;-1.63;100.00;100179.19;5090214;28;20094;-64
2022/01/10 01:37:12;;;;;;;30.27;17.08;;;;;;;-1.61;100.00;100178.31;5090971;28;20028;-64
2022/01/10 01:39:37;;;;;;;30.08;14.23;;;;;;;-1.66;100.00;100174.06;5082326;28;20088;-64
2022/01/10 01:42:16;;;;;;;22.27;12.63;;;;;;;-1.80;100.00;100180.97;5093215;28;20039;-64
2022/01/10 01:44:42;;;;;;;32.75;16.02;;;;;;;-1.82;100.00;100180.09;5095735;28;20412;-65
2022/01/10 01:47:07;;;;;;;28.08;13.98;;;;;;;-1.81;100.00;100187.84;5093986;28;20035;-64
2022/01/10 01:49:33;;;;;;;32.55;16.35;;;;;;;-1.79;100.00;100198.97;5095406;28;20077;-64
2022/01/10 01:51:58;;;;;;;33.88;15.43;;;;;;;-1.75;100.00;100200.69;5095558;28;20103;-64
2022/01/10 01:54:24;;;;;;;22.85;15.27;;;;;;;-1.76;100.00;100205.84;5095372;28;20032;-64
2022/01/10 01:56:51;;;;;;;33.65;18.17;;;;;;;-1.76;100.00;100198.13;5095079;28;20425;-64
2022/01/10 01:59:17;;;;;;;26.50;15.98;;;;;;;-1.84;100.00;100200.72;5094592;28;20102;-64
2022/01/10 02:01:42;;;;;;;28.58;16.15;;;;;;;-1.72;100.00;100215.25;5095617;28;20024;-64
2022/01/10 02:04:07;;;;;;;34.33;17.80;;;;;;;-1.67;100.00;100229.00;5095937;28;20081;-64
2022/01/10 02:06:33;;;;;;;30.75;17.60;;;;;;;-1.63;100.00;100225.53;5095447;28;20374;-64
2022/01/10 02:08:58;;;;;;;32.05;17.40;;;;;;;-1.60;100.00;100235.84;5092949;28;20066;-63
2022/01/10 02:11:24;;;;;;;36.72;18.23;;;;;;;-1.63;100.00;100233.28;5095232;28;20032;-63
2022/01/10 02:13:49;;;;;;;27.85;16.25;;;;;;;-1.66;100.00;100230.72;5095074;28;20024;-64
2022/01/10 02:16:20;;;;;;;33.22;16.92;;;;;;;-1.63;100.00;100231.56;5095223;28;20038;-64
2022/01/10 02:18:46;;;;;;;26.40;17.45;;;;;;;-1.61;100.00;100231.53;5094624;28;20069;-64
2022/01/10 02:21:12;;;;;;;35.92;18.95;;;;;;;-1.59;100.00;100232.41;5094956;28;20462;-64
2022/01/10 02:23:38;;;;;;;35.63;19.30;;;;;;;-1.56;100.00;100238.41;5095002;28;20081;-64
2022/01/10 02:26:03;;;;;;;34.65;18.48;;;;;;;-1.50;100.00;100240.09;5094867;28;20032;-64
2022/01/10 02:28:29;;;;;;;26.83;18.05;;;;;;;-1.46;100.00;100239.22;5095254;28;20064;-64
2022/01/10 02:30:58;;;;;;;34.45;21.17;;;;;;;-1.37;100.00;100246.88;5095201;28;20058;-64
2022/01/10 02:33:30;;;;;;;31.67;21.35;;;;;;;-1.26;100.00;100250.28;5092290;28;20024;-64
2022/01/10 02:36:39;;;;;;;40.95;23.60;;;;;;;-1.12;100.00;100251.06;5095142;28;20077;-64
2022/01/10 02:38:51;;;;;;;39.97;22.98;;;;;;;-1.40;100.00;100191.94;5083669;28;20479;-64
2022/01/10 02:41:29;;;;;;;42.83;22.60;;;;;;;-0.84;100.00;100271.50;5094874;28;20020;-63
2022/01/10 02:43:56;;;;;;;55.15;25.08;;;;;;;-0.76;100.00;100278.34;5093929;28;20024;-64
2022/01/10 02:46:22;;;;;;;41.72;21.85;;;;;;;-0.72;100.00;100297.25;5094540;28;20028;-63
2022/01/10 02:48:47;;;;;;;46.92;22.48;;;;;;;-0.68;100.00;100298.94;5092710;28;20027;-63
2022/01/10 02:51:13;;;;;;;34.13;20.45;;;;;;;-1.12;100.00;100212.41;5109772;28;20514;-64
2022/01/10 02:53:38;;;;;;;32.60;20.00;;;;;;;-0.77;100.00;100273.19;5094112;28;20028;-64
2022/01/10 02:56:04;;;;;;;40.05;20.70;;;;;;;-0.66;100.00;100302.34;5094854;28;20032;-63
2022/01/10 02:58:29;;;;;;;31.55;19.42;;;;;;;-0.68;100.00;100294.63;5094163;28;20024;-64
2022/01/10 03:00:55;;;;;;;42.97;19.90;;;;;;;-0.66;100.00;100305.78;5092814;28;20043;-63
2022/01/10 03:03:20;;;;;;;36.33;19.20;;;;;;;-0.64;100.00;100313.50;5094690;28;20199;-63
2022/01/10 03:05:45;;;;;;;49.80;20.00;;;;;;;-0.65;100.00;100320.41;5094516;28;20028;-64
2022/01/10 03:08:11;;;;;;;28.92;18.02;;;;;;;-0.65;100.00;100327.28;5109859;28;20455;-64
2022/01/10 03:10:36;;;;;;;26.92;18.02;;;;;;;-0.66;100.00;100323.00;5093951;28;20043;-63
2022/01/10 03:13:02;;;;;;;25.35;17.02;;;;;;;-0.68;100.00;100335.91;5092487;28;20028;-64
2022/01/10 03:15:28;;;;;;;26.50;17.48;;;;;;;-0.65;100.00;100335.03;5093688;28;20059;-64
2022/01/10 03:17:54;;;;;;;35.42;16.42;;;;;;;-0.79;100.00;100313.63;5094016;28;20036;-64
2022/01/10 03:20:20;;;;;;;42.42;17.35;;;;;;;-1.08;100.00;100275.94;5093757;28;20028;-63
2022/01/10 03:22:45;;;;;;;49.85;17.70;;;;;;;-0.66;100.00;100347.06;5093571;28;20490;-64
2022/01/10 03:25:11;;;;;;;27.67;14.70;;;;;;;-0.69;100.00;100352.25;5088704;28;20032;-64
2022/01/10 03:27:37;;;;;;;38.50;16.95;;;;;;;-0.82;100.00;100326.53;5109386;28;20028;-64
2022/01/10 03:30:04;;;;;;;31.83;15.23;;;;;;;-0.66;100.00;100365.13;5092325;28;20035;-63
2022/01/10 03:32:29;;;;;;;32.15;16.75;;;;;;;-0.66;100.00;100359.97;5092993;28;20020;-63
2022/01/10 03:34:57;;;;;;;47.63;17.58;;;;;;;-0.65;100.00;100366.84;5091327;28;20079;-63
2022/01/10 03:37:23;;;;;;;35.63;16.23;;;;;;;-0.63;100.00;100371.97;5093099;28;20107;-63
2022/01/10 03:39:49;;;;;;;47.00;17.25;;;;;;;-0.62;100.00;100378.88;5093003;28;20352;-63
2022/01/10 03:42:14;;;;;;;37.35;17.13;;;;;;;-0.61;100.00;100375.44;5092492;28;20201;-63
2022/01/10 03:44:39;;;;;;;22.30;14.93;;;;;;;-0.59;100.00;100376.25;5093221;28;20478;-63
2022/01/10 03:47:05;;;;;;;28.98;16.02;;;;;;;-0.57;100.00;100384.84;5093631;28;20394;-63
2022/01/10 03:49:31;;;;;;;66.93;19.05;;;;;;;-0.57;100.00;100392.56;5094007;28;20398;-64
2022/01/10 03:51:56;;;;;;;27.83;15.82;;;;;;;-0.54;100.00;100396.00;5091669;28;20028;-63
2022/01/10 03:54:22;;;;;;;42.28;17.88;;;;;;;-0.52;100.00;100398.59;5089948;28;20543;-63
2022/01/10 03:56:48;;;;;;;54.67;18.38;;;;;;;-0.48;100.00;100404.59;5093207;28;20057;-64
2022/01/10 03:59:13;;;;;;;46.40;18.08;;;;;;;-0.50;100.00;100402.00;5093342;28;20355;-64
2022/01/10 04:01:39;;;;;;;29.33;16.63;;;;;;;-0.47;100.00;100409.72;5091930;28;20043;-64
2022/01/10 04:04:06;;;;;;;46.00;18.80;;;;;;;-0.45;100.00;100415.75;5093111;28;20031;-64
2022/01/10 04:06:31;;;;;;;42.42;17.98;;;;;;;-0.88;100.00;100342.88;5093269;28;20028;-64
2022/01/10 04:08:57;;;;;;;32.67;18.33;;;;;;;-0.38;100.00;100432.06;5093315;28;20489;-64
2022/01/10 04:11:23;;;;;;;41.03;17.60;;;;;;;-0.38;100.00;100430.34;5092680;28;20028;-63
2022/01/10 04:13:48;;;;;;;55.83;19.92;;;;;;;-0.36;100.00;100436.34;5092665;28;20035;-64
2022/01/10 04:16:14;;;;;;;32.08;17.48;;;;;;;-0.36;100.00;100440.63;5092590;28;20080;-63
2022/01/10 04:18:39;;;;;;;57.50;19.50;;;;;;;-0.36;100.00;100445.81;5092945;28;20510;-64
2022/01/10 04:21:05;;;;;;;60.95;19.05;;;;;;;-0.34;100.00;100444.94;5091339;28;20031;-63
2022/01/10 04:23:30;;;;;;;46.40;18.35;;;;;;;-0.32;100.00;100448.38;5092881;28;20126;-63
2022/01/10 04:25:56;;;;;;;67.90;18.58;;;;;;;-0.31;100.00;100455.25;5092749;28;20425;-64
2022/01/10 04:28:21;;;;;;;43.53;17.27;;;;;;;-0.30;100.00;100453.50;5092867;28;20128;-63
2022/01/10 04:30:46;;;;;;;53.63;19.02;;;;;;;-0.28;100.00;100460.41;5092536;28;20016;-64
2022/01/10 04:33:17;;;;;;;100.47;26.23;;;;;;;-0.28;100.00;100452.66;5091953;28;20051;-64
2022/01/10 04:35:42;;;;;;;51.40;18.23;;;;;;;-0.30;100.00;100456.09;5092378;28;20032;-64
2022/01/10 04:38:08;;;;;;;48.65;19.38;;;;;;;-0.23;100.00;100466.38;5092742;28;20035;-64
2022/01/10 04:40:34;;;;;;;92.43;22.98;;;;;;;-0.24;100.00;100463.81;5091301;28;20093;-64
2022/01/10 04:42:59;;;;;;;48.65;19.15;;;;;;;-0.19;100.00;100477.53;5092539;28;20474;-64
2022/01/10 04:45:24;;;;;;;55.33;23.35;;;;;;;-0.21;100.00;100477.56;5057164;28;20032;-64
2022/01/10 04:47:50;;;;;;;42.13;17.92;;;;;;;-0.22;100.00;100481.00;5093269;28;20077;-64
2022/01/10 04:52:50;;;;;;;41.10;18.30;;;;;;;-0.16;100.00;100514.53;5088683;28;20044;-63
2022/01/10 04:55:16;;;;;;;34.38;18.63;;;;;;;-0.17;100.00;100515.38;5091754;28;20035;-64
2022/01/10 04:57:41;;;;;;;44.17;20.52;;;;;;;-0.16;100.00;100506.78;5092446;28;20032;-63
2022/01/10 05:00:09;;;;;;;77.63;24.42;;;;;;;-0.10;100.00;100513.63;5092563;28;20043;-64
2022/01/10 05:02:35;;;;;;;40.38;20.05;;;;;;;-0.13;100.00;100519.69;5074299;28;20122;-64
2022/01/10 05:05:00;;;;;;;56.08;21.40;;;;;;;-0.19;100.00;100511.97;5074186;28;20508;-64
2022/01/10 05:07:26;;;;;;;43.97;21.17;;;;;;;-0.11;100.00;100527.44;5092344;28;20050;-64
2022/01/10 05:09:51;;;;;;;82.43;23.92;;;;;;;-0.11;100.00;100530.88;5092397;28;20028;-64
2022/01/10 05:12:17;;;;;;;60.33;23.15;;;;;;;-0.11;100.00;100551.53;5090439;28;20035;-64
2022/01/10 05:14:42;;;;;;;52.22;22.45;;;;;;;-0.11;100.00;100551.53;5092200;28;20099;-64
2022/01/10 05:17:07;;;;;;;49.92;22.35;;;;;;;-0.19;100.00;100534.34;5092384;28;20488;-64
2022/01/10 05:19:33;;;;;;;55.47;22.58;;;;;;;-0.45;100.00;100492.31;5108487;28;20455;-63
2022/01/10 05:21:58;;;;;;;43.63;20.88;;;;;;;-0.10;100.00;100553.22;5092138;28;20031;-64
2022/01/10 05:24:24;;;;;;;113.25;27.38;;;;;;;-0.08;100.00;100568.72;5091841;28;20028;-64
2022/01/10 05:26:49;;;;;;;42.95;19.63;;;;;;;-0.12;100.00;100573.03;5092164;28;20047;-64
2022/01/10 05:29:15;;;;;;;53.03;22.73;;;;;;;-0.07;100.00;100583.38;5091738;28;20032;-64
2022/01/10 05:31:41;;;;;;;83.70;24.83;;;;;;;-0.36;100.00;100526.66;5092109;28;20032;-64
2022/01/10 05:34:07;;;;;;;95.75;25.55;;;;;;;-0.04;100.00;100588.50;5083012;28;20031;-64
2022/01/10 05:36:32;;;;;;;50.47;22.95;;;;;;;-0.06;100.00;100580.75;5091972;28;20068;-64
2022/01/10 05:38:57;;;;;;;39.53;22.08;;;;;;;-0.52;100.00;100522.44;5091823;28;20105;-64
2022/01/10 05:41:24;;;;;;;39.80;21.42;;;;;;;-0.08;100.00;100608.31;5091673;28;20434;-63
2022/01/10 05:43:49;;;;;;;66.53;23.17;;;;;;;-0.09;100.00;100601.44;5092334;28;20107;-63
2022/01/10 05:46:21;;;;;;;33.35;20.52;;;;;;;-0.18;100.00;100582.53;5092226;28;20368;-64
2022/01/10 05:48:49;;;;;;;36.35;20.73;;;;;;;-0.07;100.00;100610.00;5092104;28;20032;-63
2022/01/10 05:51:15;;;;;;;65.72;22.25;;;;;;;-0.08;100.00;100613.47;5091842;28;20038;-64
2022/01/10 05:53:40;;;;;;;48.05;21.88;;;;;;;-0.07;100.00;100617.75;5091612;28;20032;-63
2022/01/10 05:56:06;;;;;;;54.72;21.02;;;;;;;-0.10;100.00;100619.50;5079170;28;20027;-63
2022/01/10 05:58:32;;;;;;;72.28;24.08;;;;;;;-0.13;100.00;100619.50;5090762;28;20471;-64
2022/01/10 06:00:58;;;;;;;58.40;22.83;;;;;;;-0.11;100.00;100621.25;5091622;28;20027;-63
2022/01/10 06:03:23;;;;;;;43.95;21.27;;;;;;;-0.09;100.00;100631.56;5092001;28;20028;-63
2022/01/10 06:05:49;;;;;;;44.17;21.33;;;;;;;-0.11;100.00;100634.16;5090674;28;20028;-64
2022/01/10 06:08:14;;;;;;;87.32;22.50;;;;;;;-0.26;100.00;100604.94;5089031;28;20028;-64
2022/01/10 06:10:39;;;;;;;38.90;18.08;;;;;;;-0.09;100.00;100640.16;5090805;28;20024;-64
2022/01/10 06:13:05;;;;;;;34.42;20.20;;;;;;;-0.11;100.00;100646.19;5090550;28;20024;-64
2022/01/10 06:15:31;;;;;;;51.20;21.65;;;;;;;-0.11;100.00;100652.22;5085854;28;20040;-64
2022/01/10 06:17:57;;;;;;;98.25;25.98;;;;;;;-0.62;100.00;100569.78;5091472;28;20066;-63
2022/01/10 06:20:22;;;;;;;75.95;22.40;;;;;;;-0.16;100.00;100656.53;5106510;28;20482;-64
2022/01/10 06:22:47;;;;;;;48.53;19.92;;;;;;;-0.26;100.00;100649.69;5091057;28;20112;-63
2022/01/10 06:25:16;;;;;;;78.45;23.55;;;;;;;-0.17;100.00;100665.13;5072780;28;20035;-64
2022/01/10 06:27:42;;;;;;;40.50;19.83;;;;;;;-0.19;100.00;100671.16;5093131;28;20382;-63
2022/01/10 06:30:07;;;;;;;40.08;20.23;;;;;;;-0.20;100.00;100667.72;5094460;28;20050;-64
2022/01/10 06:32:33;;;;;;;28.85;18.42;;;;;;;-0.20;100.00;100672.03;5110124;28;20028;-64
2022/01/10 06:34:59;;;;;;;36.35;18.35;;;;;;;-0.19;100.00;100686.66;5094885;28;20070;-63
2022/01/10 06:37:25;;;;;;;104.90;23.77;;;;;;;-0.18;100.00;100684.09;5094685;28;20027;-64
2022/01/10 06:39:50;;;;;;;56.15;21.92;;;;;;;-0.17;100.00;100690.13;5094288;28;20101;-64
2022/01/10 06:42:16;;;;;;;29.65;18.63;;;;;;;-0.19;100.00;100695.28;5093602;28;20070;-64
2022/01/10 06:44:41;;;;;;;32.92;18.08;;;;;;;-0.19;100.00;100708.19;5093989;28;20032;-63
2022/01/10 06:47:07;;;;;;;27.98;16.90;;;;;;;-0.19;100.00;100712.47;5090191;28;20125;-64
2022/01/10 06:49:32;;;;;;;47.17;18.75;;;;;;;-0.20;100.00;100701.28;5093579;28;20043;-63
2022/01/10 06:51:58;;;;;;;76.05;22.42;;;;;;;-0.21;100.00;100704.75;5092732;28;20099;-64
2022/01/10 06:54:24;;;;;;;23.83;16.17;;;;;;;-0.28;100.00;100697.88;5092598;28;20039;-64
2022/01/10 06:56:49;;;;;;;70.90;23.25;;;;;;;-0.20;100.00;100716.78;5092007;28;20487;-64
2022/01/10 06:59:15;;;;;;;31.90;18.50;;;;;;;-0.21;100.00;100722.81;5091939;28;20035;-64
2022/01/10 07:01:40;;;;;;;25.77;15.98;;;;;;;-0.22;100.00;100725.41;5074811;28;20046;-63
2022/01/10 07:04:05;;;;;;;27.02;15.63;;;;;;;-0.23;100.00;100728.81;5093335;28;20031;-64
2022/01/10 07:06:31;;;;;;;27.05;15.60;;;;;;;-0.24;100.00;100735.75;5092859;28;20028;-64
2022/01/10 07:08:57;;;;;;;34.88;16.08;;;;;;;-0.25;100.00;100749.50;5092855;28;20118;-64
2022/01/10 07:11:22;;;;;;;39.58;16.05;;;;;;;-0.26;100.00;100752.94;5085816;28;20032;-64
2022/01/10 07:13:48;;;;;;;41.63;17.58;;;;;;;-0.28;100.00;100758.97;5089809;28;20370;-63
2022/01/10 07:16:13;;;;;;;61.25;18.10;;;;;;;-0.30;100.00;100765.84;5109452;28;20028;-63
2022/01/10 07:18:39;;;;;;;54.38;15.13;;;;;;;-0.31;100.00;100767.59;5093921;28;20077;-64
2022/01/10 07:21:05;;;;;;;27.45;14.35;;;;;;;-0.33;100.00;100774.44;5094401;28;20060;-64
2022/01/10 07:23:30;;;;;;;56.85;16.70;;;;;;;-0.33;100.00;100791.66;5094933;28;20043;-63
2022/01/10 07:25:55;;;;;;;32.38;14.77;;;;;;;-0.37;100.00;100788.22;5093561;28;20030;-63
2022/01/10 07:28:21;;;;;;;26.48;15.45;;;;;;;-0.39;100.00;100792.53;5094708;28;20028;-63
2022/01/10 07:30:49;;;;;;;31.85;15.68;;;;;;;-0.41;100.00;100803.72;5094362;28;20413;-63
2022/01/10 07:33:14;;;;;;;29.45;16.00;;;;;;;-0.43;100.00;100803.69;5094668;28;20024;-63
2022/01/10 07:35:39;;;;;;;21.83;15.77;;;;;;;-0.42;100.00;100814.88;5093962;28;20034;-64
2022/01/10 07:38:05;;;;;;;48.63;17.55;;;;;;;-0.47;100.00;100825.19;5074093;28;20038;-63
2022/01/10 07:40:30;;;;;;;48.20;18.52;;;;;;;-0.45;100.00;100832.94;5066756;28;20036;-63
2022/01/10 07:42:56;;;;;;;30.73;16.88;;;;;;;-0.48;100.00;100838.97;5077682;28;20887;-63
2022/01/10 07:45:21;;;;;;;23.55;15.60;;;;;;;-0.51;100.00;100841.56;5080458;28;20168;-63
2022/01/10 07:47:47;;;;;;;36.85;17.08;;;;;;;-0.64;100.00;100817.44;5075909;28;20028;-63
2022/01/10 07:50:12;;;;;;;33.70;16.52;;;;;;;-0.82;100.00;100796.78;5079384;28;20032;-64
2022/01/10 07:52:37;;;;;;;26.05;15.35;;;;;;;-0.63;100.00;100838.94;5080395;28;20182;-63
2022/01/10 07:55:04;;;;;;;27.70;15.73;;;;;;;-0.54;100.00;100859.59;5083956;28;20032;-63
2022/01/10 07:57:29;;;;;;;45.88;19.77;;;;;;;-0.56;100.00;100856.16;5078847;28;20042;-63
2022/01/10 07:59:55;;;;;;;32.28;15.95;;;;;;;-0.61;100.00;100860.47;5076627;28;20032;-63
2022/01/10 08:02:21;;;;;;;23.25;16.45;;;;;;;-0.65;100.00;100863.88;5082838;28;20539;-63
2022/01/10 08:04:47;;;;;;;27.35;16.25;;;;;;;-0.69;100.00;100864.72;5083684;28;20036;-64
2022/01/10 08:07:13;;;;;;;32.70;16.98;;;;;;;-0.71;100.00;100872.44;5083041;28;20032;-63
2022/01/10 08:09:38;;;;;;;21.70;15.50;;;;;;;-0.73;100.00;100881.03;5080782;28;20554;-63
2022/01/10 08:12:04;;;;;;;23.42;16.50;;;;;;;-0.81;100.00;100873.28;5079698;28;20114;-63
2022/01/10 08:14:30;;;;;;;27.05;16.52;;;;;;;-0.78;100.00;100893.94;5082381;28;20811;-63
2022/01/10 08:16:56;;;;;;;25.48;15.30;;;;;;;-0.78;100.00;100890.50;5081856;28;20100;-63
2022/01/10 08:19:22;;;;;;;27.52;18.55;;;;;;;-0.79;100.00;100904.25;5083592;28;20501;-63
2022/01/10 08:21:47;;;;;;;27.27;17.65;;;;;;;-0.80;100.00;100907.66;5083448;28;20036;-63
2022/01/10 08:24:13;;;;;;;24.98;15.35;;;;;;;-0.80;100.00;100917.97;5083696;28;20093;-64
2022/01/10 08:26:40;;;;;;;27.02;17.38;;;;;;;-0.78;100.00;100921.44;5085994;28;20028;-63
2022/01/10 08:29:06;;;;;;;31.60;18.17;;;;;;;-0.89;100.00;100902.47;5086638;28;20036;-63
2022/01/10 08:31:31;;;;;;;29.88;16.50;;;;;;;-0.73;100.00;100925.75;5060243;28;20027;-63
2022/01/10 08:33:57;;;;;;;24.05;16.20;;;;;;;-0.70;100.00;100935.22;5073605;28;20471;-64
2022/01/10 08:36:22;;;;;;;37.78;17.40;;;;;;;-0.71;100.00;100939.50;5083478;28;20032;-64
2022/01/10 08:38:47;;;;;;;37.88;19.63;;;;;;;-0.70;100.00;100956.72;5081069;28;20531;-63
2022/01/10 08:41:13;;;;;;;33.67;20.10;;;;;;;-0.83;100.00;100928.28;5092322;28;20028;-64
2022/01/10 08:43:38;;;;;;;36.70;18.95;;;;;;;-0.70;100.00;100951.56;5089972;28;20043;-63
2022/01/10 08:46:04;;;;;;;32.67;19.27;;;;;;;-0.70;100.00;100950.69;5091900;28;20035;-64
2022/01/10 08:48:29;;;;;;;38.50;20.77;;;;;;;-0.76;100.00;100948.09;5092237;28;20482;-64
2022/01/10 08:50:55;;;;;;;34.72;18.88;;;;;;;-0.68;100.00;100967.06;5092919;28;20478;-64
2022/01/10 08:53:20;;;;;;;30.08;18.23;;;;;;;-0.71;100.00;100967.06;5093111;28;20490;-63
2022/01/10 08:55:47;;;;;;;30.02;17.85;;;;;;;-0.72;100.00;100975.66;5092072;28;20398;-63
2022/01/10 08:58:13;;;;;;;38.15;19.38;;;;;;;-0.69;100.00;100973.06;5089125;28;20028;-63
2022/01/10 09:00:38;;;;;;;25.58;17.55;;;;;;;-0.64;100.00;100982.53;5092683;28;20462;-63
2022/01/10 09:03:03;;;;;;;37.55;18.88;;;;;;;-0.73;100.00;100961.88;5092407;28;20110;-64
2022/01/10 09:05:30;;;;;;;27.83;17.88;;;;;;;-0.57;100.00;100992.03;5091983;28;20122;-63
2022/01/10 09:07:58;;;;;;;34.15;19.30;;;;;;;-0.53;100.00;101003.25;5092942;28;20031;-64
2022/01/10 09:10:27;;;;;;;41.60;19.98;;;;;;;-0.52;100.00;101007.56;5092821;28;20035;-64
2022/01/10 09:12:53;;;;;;;36.40;19.77;;;;;;;-0.81;100.00;100953.22;5074929;28;20028;-63
2022/01/10 09:15:19;;;;;;;29.33;18.95;;;;;;;-0.52;100.00;101012.72;5092029;28;20032;-64
2022/01/10 09:17:44;;;;;;;32.33;20.40;;;;;;;-0.49;100.00;101017.88;5091974;28;20496;-64
2022/01/10 09:20:10;;;;;;;36.15;21.80;;;;;;;-0.50;100.00;101026.47;5092616;28;20156;-63
2022/01/10 09:22:36;;;;;;;29.45;19.15;;;;;;;-0.51;100.00;101024.78;5092561;28;20528;-63
2022/01/10 09:25:01;;;;;;;32.92;19.98;;;;;;;-0.57;100.00;101011.81;5092224;28;20035;-64
2022/01/10 09:27:27;;;;;;;37.40;19.70;;;;;;;-0.43;100.00;101033.41;5092448;28;20397;-64
2022/01/10 09:29:52;;;;;;;30.20;19.20;;;;;;;-0.52;100.00;101013.59;5092080;28;20028;-63
2022/01/10 09:32:18;;;;;;;34.58;18.90;;;;;;;-0.33;100.00;101039.44;5091777;28;20526;-64
2022/01/10 09:34:43;;;;;;;36.58;22.33;;;;;;;-0.29;100.00;101036.91;5092639;28;20032;-64
2022/01/10 09:37:09;;;;;;;33.38;19.95;;;;;;;-0.20;100.00;101036.94;5091513;28;20036;-64
2022/01/10 09:39:34;;;;;;;26.42;18.55;;;;;;;-0.09;100.00;101043.00;5091898;28;20039;-63
2022/01/10 09:41:59;;;;;;;30.08;19.02;;;;;;;0.03;100.00;101051.66;5082187;28;20032;-63
2022/01/10 09:44:25;;;;;;;35.00;18.35;;;;;;;0.11;100.00;101050.81;5079574;28;20891;-63
2022/01/10 09:46:50;;;;;;;32.17;20.88;;;;;;;0.20;100.00;101047.41;5079820;28;20050;-64
2022/01/10 09:49:17;;;;;;;35.80;20.63;;;;;;;0.26;100.00;101044.81;5083786;28;20497;-64
2022/01/10 09:51:43;;;;;;;32.08;19.83;;;;;;;0.31;100.00;101045.66;5083857;28;20114;-64
2022/01/10 09:54:08;;;;;;;34.03;19.77;;;;;;;0.28;100.00;101035.34;5080891;28;20229;-71
2022/01/10 09:56:34;;;;;;;34.63;20.50;;;;;;;0.17;100.00;101004.31;5100239;28;20035;-71
2022/01/10 09:59:00;;;;;;;35.22;20.10;;;;;;;0.19;100.00;100988.81;5050564;28;20102;-63
2022/01/10 10:01:27;;;;;;;34.40;20.77;;;;;;;0.69;100.00;101061.22;5082548;28;20024;-63
2022/01/10 10:03:54;;;;;;;33.25;20.67;;;;;;;0.74;100.00;101062.97;5088991;28;20128;-64
2022/01/10 10:06:20;;;;;;;39.92;21.88;;;;;;;0.83;100.00;101055.22;5088274;28;20032;-63
2022/01/10 10:08:45;;;;;;;36.42;21.05;;;;;;;0.94;100.00;101069.00;5084377;28;20039;-69
2022/01/10 10:11:11;;;;;;;50.10;23.55;;;;;;;1.02;100.00;101063.81;5055333;28;20043;-67
2022/01/10 10:13:42;;;;;;;42.50;21.95;;;;;;;1.14;100.00;101070.72;5083198;28;20032;-67
2022/01/10 10:16:13;;;;;;;34.78;22.20;;;;;;;1.24;100.00;101072.44;5085873;28;20028;-64
2022/01/10 10:18:39;;;;;;;43.22;23.63;;;;;;;1.29;100.00;101068.94;5086049;28;20078;-67
2022/01/10 10:21:10;;;;;;;43.13;21.77;;;;;;;1.47;100.00;101083.59;5069080;28;20036;-66
2022/01/10 10:23:35;;;;;;;50.88;22.67;;;;;;;1.54;100.00;101090.47;5084808;28;20097;-68
2022/01/10 10:26:01;;;;;;;38.30;21.75;;;;;;;1.59;100.00;101083.53;5084226;28;20433;-64
2022/01/10 10:28:26;;;;;;;30.67;20.50;;;;;;;1.67;100.00;101089.59;5103837;28;20123;-64
2022/01/10 10:30:58;;;;;;;37.95;21.38;;;;;;;1.72;100.00;101090.44;5088052;28;20923;-63
2022/01/10 10:33:25;;;;;;;41.72;20.73;;;;;;;1.79;100.00;101097.28;5087194;28;20441;-63
2022/01/10 10:36:10;;;;;;;32.95;20.60;;;;;;;1.88;100.00;101099.00;5067600;28;20050;-63
2022/01/10 10:38:36;;;;;;;32.15;19.83;;;;;;;1.95;100.00;101103.31;5082354;28;20078;-63
2022/01/10 10:41:04;;;;;;;36.42;20.83;;;;;;;2.03;100.00;101102.41;5087299;28;20032;-63
2022/01/10 10:43:34;;;;;;;32.20;18.70;;;;;;;2.13;100.00;101110.16;5080727;28;20059;-63
2022/01/10 10:46:04;;;;;;;23.70;16.52;;;;;;;1.90;100.00;101077.41;5086834;28;20031;-64
2022/01/10 10:48:30;;;;;;;29.33;16.20;;;;;;;2.27;100.00;101114.38;5086921;28;20040;-64
2022/01/10 10:50:58;;;;;;;37.03;16.92;;;;;;;2.38;100.00;101124.69;5086133;28;20016;-63
2022/01/10 10:53:27;;;;;;;25.00;14.15;;;;;;;2.46;100.00;101133.31;5067624;28;20036;-63
2022/01/10 10:55:52;;;;;;;23.55;16.63;;;;;;;2.50;100.00;101132.44;5050484;28;20047;-64
2022/01/10 10:58:18;;;;;;;23.95;15.60;;;;;;;2.57;100.00;101139.28;5064093;28;20395;-64
2022/01/10 11:00:43;;;;;;;27.92;16.00;;;;;;;2.60;100.00;101139.28;5074277;28;20194;-64
2022/01/10 11:03:12;;;;;;;25.75;15.13;;;;;;;2.62;100.00;101129.75;5084817;28;20070;-64
2022/01/10 11:05:39;;;;;;;26.83;15.43;;;;;;;2.66;100.00;101131.47;5086122;28;20457;-64